UAE648 OMDB-VCBI
Flight info
| Callsign | UAE648 |
|---|---|
| Flight time | 3h 53m |
| Altitude | 37000 |
| Route | ANVIX L223 TARDI N629 GIDAN P570 EMURU M300 MESAN/N0487F390 M300 VASTU P895 BIKOK BIKOK1A |
| Aircraft | B77W/H-SDE1E2E3FGHIJ2J3J4J5M1RWXY/LB1D1 |
Departure
| Time | 2026-05-07 14:17 |
|---|---|
| Airport | Dubai International Airport (OMDB) |
Arrival
| Time | 2026-05-07 18:11 |
|---|---|
| Airport | Bandaranaike International Colombo Airport (VCBI) |
| Time | Latitude | Longitude | Altitude | Speed | Heading |
|---|---|---|---|---|---|
| 2026-05-07 13:24 | 25.25235 | 55.35646 | 76 ft | 0 kts | 211° |
| 2026-05-07 14:02 | 25.25243 | 55.35652 | 76 ft | 2 kts | 211° |
| 2026-05-07 14:02 | 25.25255 | 55.35660 | 76 ft | 2 kts | 211° |
| 2026-05-07 14:02 | 25.25268 | 55.35669 | 76 ft | 2 kts | 211° |
| 2026-05-07 14:03 | 25.25281 | 55.35677 | 76 ft | 2 kts | 211° |
| 2026-05-07 14:03 | 25.25294 | 55.35686 | 76 ft | 2 kts | 214° |
| 2026-05-07 14:03 | 25.25304 | 55.35697 | 76 ft | 2 kts | 243° |
| 2026-05-07 14:03 | 25.25309 | 55.35713 | 76 ft | 2 kts | 267° |
| 2026-05-07 14:04 | 25.25307 | 55.35729 | 76 ft | 2 kts | 290° |
| 2026-05-07 14:04 | 25.25304 | 55.35737 | 76 ft | 1 kts | 303° |
| 2026-05-07 14:04 | 25.25302 | 55.35739 | 76 ft | 0 kts | 302° |
| 2026-05-07 14:08 | 25.25313 | 55.35720 | 76 ft | 5 kts | 301° |
| 2026-05-07 14:08 | 25.25342 | 55.35668 | 76 ft | 10 kts | 301° |
| 2026-05-07 14:08 | 25.25378 | 55.35601 | 76 ft | 10 kts | 301° |
| 2026-05-07 14:09 | 25.25419 | 55.35529 | 76 ft | 11 kts | 301° |
| 2026-05-07 14:09 | 25.25462 | 55.35449 | 76 ft | 12 kts | 301° |
| 2026-05-07 14:09 | 25.25511 | 55.35360 | 76 ft | 13 kts | 302° |
| 2026-05-07 14:09 | 25.25568 | 55.35258 | 76 ft | 18 kts | 301° |
| 2026-05-07 14:10 | 25.25618 | 55.35170 | 75 ft | 8 kts | 304° |
| 2026-05-07 14:10 | 25.25661 | 55.35152 | 75 ft | 6 kts | 14° |
| 2026-05-07 14:10 | 25.25714 | 55.35183 | 75 ft | 10 kts | 31° |
| 2026-05-07 14:10 | 25.25792 | 55.35236 | 76 ft | 15 kts | 31° |
| 2026-05-07 14:11 | 25.25899 | 55.35307 | 76 ft | 20 kts | 32° |
| 2026-05-07 14:11 | 25.25993 | 55.35413 | 76 ft | 19 kts | 74° |
| 2026-05-07 14:11 | 25.25974 | 55.35551 | 76 ft | 17 kts | 119° |
| 2026-05-07 14:11 | 25.25909 | 55.35669 | 76 ft | 18 kts | 121° |
| 2026-05-07 14:12 | 25.25834 | 55.35806 | 76 ft | 22 kts | 121° |
| 2026-05-07 14:12 | 25.25747 | 55.35964 | 76 ft | 26 kts | 121° |
| 2026-05-07 14:12 | 25.25647 | 55.36144 | 76 ft | 29 kts | 122° |
| 2026-05-07 14:12 | 25.25538 | 55.36340 | 76 ft | 29 kts | 121° |
| 2026-05-07 14:13 | 25.25434 | 55.36524 | 76 ft | 27 kts | 121° |
| 2026-05-07 14:13 | 25.25340 | 55.36696 | 76 ft | 25 kts | 121° |
| 2026-05-07 14:13 | 25.25250 | 55.36856 | 76 ft | 23 kts | 122° |
| 2026-05-07 14:13 | 25.25168 | 55.37003 | 76 ft | 21 kts | 120° |
| 2026-05-07 14:14 | 25.25092 | 55.37141 | 76 ft | 21 kts | 121° |
| 2026-05-07 14:14 | 25.25011 | 55.37291 | 76 ft | 23 kts | 121° |
| 2026-05-07 14:14 | 25.24921 | 55.37454 | 76 ft | 25 kts | 123° |
| 2026-05-07 14:14 | 25.24823 | 55.37627 | 76 ft | 27 kts | 121° |
| 2026-05-07 14:15 | 25.24728 | 55.37797 | 76 ft | 19 kts | 121° |
| 2026-05-07 14:15 | 25.24679 | 55.37886 | 76 ft | 9 kts | 121° |
| 2026-05-07 14:15 | 25.24663 | 55.37940 | 76 ft | 4 kts | 67° |
| 2026-05-07 14:15 | 25.24694 | 55.37967 | 76 ft | 7 kts | 32° |
| 2026-05-07 14:16 | 25.24750 | 55.38007 | 76 ft | 10 kts | 33° |
| 2026-05-07 14:16 | 25.24787 | 55.38031 | 76 ft | 2 kts | 12° |
| 2026-05-07 14:16 | 25.24803 | 55.38025 | 76 ft | 2 kts | 317° |
| 2026-05-07 14:16 | 25.24825 | 55.37991 | 76 ft | 12 kts | 303° |
| 2026-05-07 14:17 | 25.24958 | 55.37756 | 76 ft | 69 kts | 301° |
| 2026-05-07 14:17 | 25.25333 | 55.37077 | 76 ft | 135 kts | 301° |
| 2026-05-07 14:17 | 25.25923 | 55.36019 | 190 ft | 180 kts | 302° |
| 2026-05-07 14:17 | 25.26581 | 55.34830 | 799 ft | 187 kts | 300° |
| 2026-05-07 14:18 | 25.27237 | 55.33633 | 1601 ft | 186 kts | 300° |
| 2026-05-07 14:18 | 25.27940 | 55.32369 | 2022 ft | 198 kts | 300° |
| 2026-05-07 14:18 | 25.28663 | 55.31076 | 2602 ft | 201 kts | 298° |
| 2026-05-07 14:18 | 25.29201 | 55.29690 | 3180 ft | 199 kts | 278° |
| 2026-05-07 14:19 | 25.29171 | 55.28178 | 3732 ft | 200 kts | 255° |
| 2026-05-07 14:19 | 25.28573 | 55.26792 | 4255 ft | 204 kts | 239° |
| 2026-05-07 14:19 | 25.27861 | 55.25425 | 4799 ft | 207 kts | 243° |
| 2026-05-07 14:19 | 25.27226 | 55.23991 | 5316 ft | 211 kts | 245° |
| 2026-05-07 14:20 | 25.26596 | 55.22507 | 5815 ft | 217 kts | 245° |
| 2026-05-07 14:20 | 25.25959 | 55.21004 | 6346 ft | 220 kts | 245° |
| 2026-05-07 14:20 | 25.25292 | 55.19429 | 6665 ft | 235 kts | 245° |
| 2026-05-07 14:20 | 25.24379 | 55.17869 | 6983 ft | 250 kts | 222° |
| 2026-05-07 14:21 | 25.22874 | 55.16934 | 7535 ft | 254 kts | 194° |
| 2026-05-07 14:21 | 25.21067 | 55.16779 | 8041 ft | 264 kts | 178° |
| 2026-05-07 14:21 | 25.19283 | 55.17188 | 8549 ft | 269 kts | 154° |
| 2026-05-07 14:21 | 25.17804 | 55.18459 | 9051 ft | 279 kts | 128° |
| 2026-05-07 14:22 | 25.16795 | 55.20377 | 9394 ft | 295 kts | 116° |
| 2026-05-07 14:22 | 25.15894 | 55.22422 | 10024 ft | 299 kts | 117° |
| 2026-05-07 14:22 | 25.14952 | 55.24464 | 10750 ft | 300 kts | 118° |
| 2026-05-07 14:22 | 25.13997 | 55.26476 | 11557 ft | 300 kts | 117° |
| 2026-05-07 14:23 | 25.13024 | 55.28505 | 12365 ft | 301 kts | 117° |
| 2026-05-07 14:23 | 25.12034 | 55.30564 | 13192 ft | 303 kts | 117° |
| 2026-05-07 14:23 | 25.11047 | 55.32615 | 14032 ft | 306 kts | 117° |
| 2026-05-07 14:23 | 25.10084 | 55.34708 | 14839 ft | 312 kts | 114° |
| 2026-05-07 14:24 | 25.09210 | 55.36886 | 15740 ft | 314 kts | 113° |
| 2026-05-07 14:24 | 25.08325 | 55.39092 | 16606 ft | 318 kts | 114° |
| 2026-05-07 14:24 | 25.07417 | 55.41318 | 17398 ft | 323 kts | 114° |
| 2026-05-07 14:24 | 25.06510 | 55.43593 | 18007 ft | 335 kts | 112° |
| 2026-05-07 14:25 | 25.05583 | 55.46030 | 18442 ft | 352 kts | 112° |
| 2026-05-07 14:25 | 25.04613 | 55.48569 | 18883 ft | 368 kts | 112° |
| 2026-05-07 14:25 | 25.03605 | 55.51195 | 19338 ft | 384 kts | 112° |
| 2026-05-07 14:25 | 25.02541 | 55.53956 | 19788 ft | 400 kts | 113° |
| 2026-05-07 14:26 | 25.01260 | 55.56753 | 20233 ft | 416 kts | 120° |
| 2026-05-07 14:26 | 24.99758 | 55.59555 | 20612 ft | 433 kts | 120° |
| 2026-05-07 14:26 | 24.98185 | 55.62459 | 20994 ft | 448 kts | 121° |
| 2026-05-07 14:26 | 24.96580 | 55.65423 | 21533 ft | 458 kts | 121° |
| 2026-05-07 14:27 | 24.94952 | 55.68429 | 22226 ft | 463 kts | 121° |
| 2026-05-07 14:27 | 24.93175 | 55.71398 | 22898 ft | 468 kts | 126° |
| 2026-05-07 14:27 | 24.91243 | 55.74327 | 23472 ft | 475 kts | 127° |
| 2026-05-07 14:27 | 24.89276 | 55.77285 | 24060 ft | 482 kts | 127° |
| 2026-05-07 14:28 | 24.87297 | 55.80262 | 24617 ft | 488 kts | 127° |
| 2026-05-07 14:28 | 24.85276 | 55.83302 | 24849 ft | 493 kts | 127° |
| 2026-05-07 14:28 | 24.83250 | 55.86341 | 24869 ft | 492 kts | 127° |
| 2026-05-07 14:28 | 24.81206 | 55.89362 | 24885 ft | 489 kts | 128° |
| 2026-05-07 14:29 | 24.79181 | 55.92332 | 24895 ft | 490 kts | 129° |
| 2026-05-07 14:29 | 24.76909 | 55.95095 | 24899 ft | 488 kts | 137° |
| 2026-05-07 14:29 | 24.74433 | 55.97678 | 24926 ft | 489 kts | 138° |
| 2026-05-07 14:29 | 24.71931 | 56.00249 | 24942 ft | 489 kts | 138° |
| 2026-05-07 14:30 | 24.69467 | 56.02779 | 24945 ft | 490 kts | 138° |
| 2026-05-07 14:30 | 24.66938 | 56.05376 | 25160 ft | 501 kts | 138° |
| 2026-05-07 14:30 | 24.64404 | 56.07983 | 25947 ft | 501 kts | 138° |
| 2026-05-07 14:30 | 24.61877 | 56.10583 | 26793 ft | 500 kts | 138° |
| 2026-05-07 14:31 | 24.59325 | 56.13205 | 27392 ft | 505 kts | 139° |
| 2026-05-07 14:31 | 24.56797 | 56.15919 | 27837 ft | 514 kts | 134° |
| 2026-05-07 14:31 | 24.54417 | 56.18888 | 28350 ft | 520 kts | 132° |
| 2026-05-07 14:31 | 24.52051 | 56.21906 | 28912 ft | 525 kts | 132° |
| 2026-05-07 14:32 | 24.49682 | 56.24931 | 29534 ft | 528 kts | 132° |
| 2026-05-07 14:32 | 24.47288 | 56.27984 | 30317 ft | 527 kts | 133° |
| 2026-05-07 14:32 | 24.44908 | 56.31016 | 31217 ft | 523 kts | 133° |
| 2026-05-07 14:32 | 24.42562 | 56.34003 | 32036 ft | 520 kts | 133° |
| 2026-05-07 14:33 | 24.40203 | 56.37002 | 32726 ft | 519 kts | 133° |
| 2026-05-07 14:33 | 24.37840 | 56.40005 | 33456 ft | 518 kts | 133° |
| 2026-05-07 14:33 | 24.35488 | 56.42991 | 34199 ft | 517 kts | 133° |
| 2026-05-07 14:33 | 24.33158 | 56.45946 | 34981 ft | 514 kts | 133° |
| 2026-05-07 14:34 | 24.30810 | 56.48922 | 35720 ft | 511 kts | 133° |
| 2026-05-07 14:34 | 24.28526 | 56.51883 | 36304 ft | 512 kts | 129° |
| 2026-05-07 14:34 | 24.26424 | 56.55037 | 36772 ft | 514 kts | 127° |
| 2026-05-07 14:35 | 24.22260 | 56.61433 | 36813 ft | 515 kts | 127° |
| 2026-05-07 14:35 | 24.18088 | 56.67785 | 36801 ft | 512 kts | 128° |
| 2026-05-07 14:36 | 24.13924 | 56.74083 | 36797 ft | 513 kts | 128° |
| 2026-05-07 14:36 | 24.09742 | 56.80382 | 36795 ft | 512 kts | 128° |
| 2026-05-07 14:37 | 24.05546 | 56.86684 | 36792 ft | 512 kts | 128° |
| 2026-05-07 14:37 | 23.99231 | 56.96137 | 36778 ft | 513 kts | 128° |
| 2026-05-07 14:38 | 23.95016 | 57.02430 | 36786 ft | 512 kts | 128° |
| 2026-05-07 14:38 | 23.90818 | 57.08691 | 36797 ft | 513 kts | 128° |
| 2026-05-07 14:39 | 23.86603 | 57.14968 | 36796 ft | 512 kts | 128° |
| 2026-05-07 14:39 | 23.82384 | 57.21246 | 36786 ft | 511 kts | 128° |
| 2026-05-07 14:40 | 23.78196 | 57.27469 | 36780 ft | 511 kts | 128° |
| 2026-05-07 14:40 | 23.73989 | 57.33713 | 36791 ft | 511 kts | 128° |
| 2026-05-07 14:41 | 23.69714 | 57.39885 | 36819 ft | 510 kts | 130° |
| 2026-05-07 14:41 | 23.65289 | 57.45935 | 36814 ft | 510 kts | 130° |
| 2026-05-07 14:42 | 23.60879 | 57.51969 | 36810 ft | 510 kts | 130° |
| 2026-05-07 14:42 | 23.56469 | 57.58008 | 36834 ft | 509 kts | 130° |
| 2026-05-07 14:43 | 23.52088 | 57.64006 | 36839 ft | 509 kts | 130° |
| 2026-05-07 14:43 | 23.47673 | 57.70047 | 36854 ft | 508 kts | 130° |
| 2026-05-07 14:44 | 23.43254 | 57.76083 | 36878 ft | 509 kts | 130° |
| 2026-05-07 14:44 | 23.38860 | 57.82077 | 36904 ft | 508 kts | 130° |
| 2026-05-07 14:45 | 23.34464 | 57.88068 | 36924 ft | 508 kts | 130° |
| 2026-05-07 14:45 | 23.30055 | 57.94071 | 36953 ft | 507 kts | 130° |
| 2026-05-07 14:46 | 23.25641 | 58.00073 | 36951 ft | 506 kts | 130° |
| 2026-05-07 14:46 | 23.21478 | 58.06201 | 36972 ft | 508 kts | 125° |
| 2026-05-07 14:47 | 23.17548 | 58.12525 | 37001 ft | 507 kts | 125° |
| 2026-05-07 14:47 | 23.13577 | 58.18866 | 37015 ft | 507 kts | 125° |
| 2026-05-07 14:48 | 23.09594 | 58.25190 | 37027 ft | 507 kts | 125° |
| 2026-05-07 14:48 | 23.05618 | 58.31482 | 37024 ft | 506 kts | 125° |
| 2026-05-07 14:49 | 23.01151 | 58.37351 | 37030 ft | 504 kts | 139° |
| 2026-05-07 14:49 | 22.95462 | 58.41734 | 37031 ft | 501 kts | 149° |
| 2026-05-07 14:50 | 22.89529 | 58.45681 | 37014 ft | 499 kts | 150° |
| 2026-05-07 14:50 | 22.83612 | 58.49604 | 36987 ft | 500 kts | 150° |
| 2026-05-07 14:51 | 22.77687 | 58.53527 | 36961 ft | 501 kts | 150° |
| 2026-05-07 14:51 | 22.71708 | 58.57482 | 36949 ft | 501 kts | 150° |
| 2026-05-07 14:52 | 22.65748 | 58.61420 | 36944 ft | 501 kts | 150° |
| 2026-05-07 14:52 | 22.59815 | 58.65337 | 36941 ft | 499 kts | 150° |
| 2026-05-07 14:53 | 22.53883 | 58.69249 | 36921 ft | 498 kts | 150° |
| 2026-05-07 14:53 | 22.47954 | 58.73155 | 36914 ft | 498 kts | 150° |
| 2026-05-07 14:54 | 22.42040 | 58.77048 | 36914 ft | 498 kts | 150° |
| 2026-05-07 14:54 | 22.36126 | 58.80936 | 36908 ft | 499 kts | 150° |
| 2026-05-07 14:55 | 22.30194 | 58.84833 | 36892 ft | 499 kts | 150° |
| 2026-05-07 14:55 | 22.24323 | 58.88898 | 36879 ft | 500 kts | 142° |
| 2026-05-07 14:56 | 22.19457 | 58.94296 | 36873 ft | 503 kts | 131° |
| 2026-05-07 14:56 | 22.15000 | 59.00079 | 36868 ft | 502 kts | 131° |
| 2026-05-07 14:57 | 22.10530 | 59.05876 | 36864 ft | 501 kts | 131° |
| 2026-05-07 14:57 | 22.06071 | 59.11650 | 36859 ft | 501 kts | 130° |
| 2026-05-07 14:58 | 22.01617 | 59.17409 | 36847 ft | 501 kts | 130° |
| 2026-05-07 14:58 | 21.97137 | 59.23196 | 36840 ft | 501 kts | 130° |
| 2026-05-07 14:59 | 21.92674 | 59.28954 | 36834 ft | 500 kts | 130° |
| 2026-05-07 14:59 | 21.88233 | 59.34676 | 36828 ft | 501 kts | 130° |
| 2026-05-07 15:00 | 21.83778 | 59.40411 | 36825 ft | 501 kts | 131° |
| 2026-05-07 15:00 | 21.79290 | 59.46181 | 36815 ft | 501 kts | 130° |
| 2026-05-07 15:01 | 21.74843 | 59.51892 | 36808 ft | 501 kts | 130° |
| 2026-05-07 15:01 | 21.70356 | 59.57650 | 36807 ft | 501 kts | 130° |
| 2026-05-07 15:02 | 21.65906 | 59.63353 | 36810 ft | 500 kts | 130° |
| 2026-05-07 15:02 | 21.61425 | 59.69090 | 36815 ft | 500 kts | 131° |
| 2026-05-07 15:03 | 21.56945 | 59.74820 | 36823 ft | 500 kts | 131° |
| 2026-05-07 15:03 | 21.52474 | 59.80518 | 36824 ft | 499 kts | 131° |
| 2026-05-07 15:04 | 21.47998 | 59.86202 | 36824 ft | 499 kts | 131° |
| 2026-05-07 15:04 | 21.43516 | 59.91888 | 36827 ft | 500 kts | 131° |
| 2026-05-07 15:05 | 21.39040 | 59.97561 | 36832 ft | 499 kts | 131° |
| 2026-05-07 15:05 | 21.34543 | 60.03255 | 36832 ft | 500 kts | 131° |
| 2026-05-07 15:06 | 21.30080 | 60.08901 | 36835 ft | 499 kts | 131° |
| 2026-05-07 15:06 | 21.25589 | 60.14576 | 36838 ft | 499 kts | 131° |
| 2026-05-07 15:07 | 21.21114 | 60.20235 | 36839 ft | 499 kts | 131° |
| 2026-05-07 15:07 | 21.16638 | 60.25901 | 36834 ft | 499 kts | 131° |
| 2026-05-07 15:08 | 21.12143 | 60.31584 | 36825 ft | 498 kts | 130° |
| 2026-05-07 15:08 | 21.07663 | 60.37242 | 36826 ft | 499 kts | 130° |
| 2026-05-07 15:09 | 21.03206 | 60.42865 | 36830 ft | 498 kts | 130° |
| 2026-05-07 15:09 | 20.98710 | 60.48532 | 36830 ft | 497 kts | 130° |
| 2026-05-07 15:10 | 20.94235 | 60.54165 | 36829 ft | 498 kts | 130° |
| 2026-05-07 15:10 | 20.89767 | 60.59786 | 36830 ft | 497 kts | 130° |
| 2026-05-07 15:11 | 20.85264 | 60.65443 | 36832 ft | 497 kts | 131° |
| 2026-05-07 15:11 | 20.80794 | 60.71054 | 36830 ft | 497 kts | 131° |
| 2026-05-07 15:12 | 20.76322 | 60.76662 | 36832 ft | 497 kts | 130° |
| 2026-05-07 15:12 | 20.71825 | 60.82295 | 36832 ft | 497 kts | 130° |
| 2026-05-07 15:13 | 20.67364 | 60.87879 | 36833 ft | 497 kts | 130° |
| 2026-05-07 15:13 | 20.62875 | 60.93491 | 36834 ft | 496 kts | 130° |
| 2026-05-07 15:14 | 20.58921 | 60.99564 | 36836 ft | 497 kts | 122° |
| 2026-05-07 15:14 | 20.55240 | 61.05749 | 36845 ft | 496 kts | 122° |
| 2026-05-07 15:15 | 20.51534 | 61.11963 | 36850 ft | 495 kts | 122° |
| 2026-05-07 15:15 | 20.47841 | 61.18144 | 36855 ft | 495 kts | 122° |
| 2026-05-07 15:16 | 20.44160 | 61.24295 | 36861 ft | 495 kts | 122° |
| 2026-05-07 15:16 | 20.40443 | 61.30500 | 36859 ft | 495 kts | 122° |
| 2026-05-07 15:17 | 20.36740 | 61.36672 | 36863 ft | 495 kts | 122° |
| 2026-05-07 15:17 | 20.33040 | 61.42833 | 36863 ft | 494 kts | 122° |
| 2026-05-07 15:18 | 20.29324 | 61.49014 | 36860 ft | 494 kts | 122° |
| 2026-05-07 15:18 | 20.25640 | 61.55135 | 36862 ft | 493 kts | 122° |
| 2026-05-07 15:19 | 20.21941 | 61.61275 | 36858 ft | 493 kts | 122° |
| 2026-05-07 15:19 | 20.18234 | 61.67419 | 36860 ft | 493 kts | 122° |
| 2026-05-07 15:20 | 20.14532 | 61.73552 | 36861 ft | 494 kts | 122° |
| 2026-05-07 15:20 | 20.10825 | 61.79684 | 36852 ft | 493 kts | 122° |
| 2026-05-07 15:21 | 20.07110 | 61.85824 | 36846 ft | 493 kts | 122° |
| 2026-05-07 15:21 | 20.03410 | 61.91933 | 36845 ft | 492 kts | 122° |
| 2026-05-07 15:22 | 19.99711 | 61.98034 | 36848 ft | 491 kts | 122° |
| 2026-05-07 15:22 | 19.96018 | 62.04118 | 36848 ft | 491 kts | 122° |
| 2026-05-07 15:23 | 19.92314 | 62.10215 | 36848 ft | 491 kts | 122° |
| 2026-05-07 15:23 | 19.88604 | 62.16314 | 36849 ft | 492 kts | 122° |
| 2026-05-07 15:24 | 19.84885 | 62.22422 | 36850 ft | 492 kts | 122° |
| 2026-05-07 15:24 | 19.81176 | 62.28508 | 36852 ft | 492 kts | 122° |
| 2026-05-07 15:25 | 19.77481 | 62.34566 | 36851 ft | 492 kts | 122° |
| 2026-05-07 15:25 | 19.73745 | 62.40683 | 36853 ft | 492 kts | 122° |
| 2026-05-07 15:26 | 19.70029 | 62.46762 | 36851 ft | 492 kts | 122° |
| 2026-05-07 15:26 | 19.66303 | 62.52851 | 36855 ft | 492 kts | 122° |
| 2026-05-07 15:27 | 19.62562 | 62.58958 | 36854 ft | 492 kts | 122° |
| 2026-05-07 15:27 | 19.58834 | 62.65037 | 36857 ft | 493 kts | 123° |
| 2026-05-07 15:28 | 19.55102 | 62.71118 | 36858 ft | 492 kts | 123° |
| 2026-05-07 15:28 | 19.51377 | 62.77181 | 36863 ft | 493 kts | 123° |
| 2026-05-07 15:29 | 19.47629 | 62.83274 | 36868 ft | 492 kts | 123° |
| 2026-05-07 15:29 | 19.43889 | 62.89349 | 36868 ft | 492 kts | 123° |
| 2026-05-07 15:30 | 19.40159 | 62.95401 | 36868 ft | 492 kts | 123° |
| 2026-05-07 15:30 | 19.36420 | 63.01463 | 36868 ft | 493 kts | 123° |
| 2026-05-07 15:31 | 19.32677 | 63.07524 | 36868 ft | 493 kts | 123° |
| 2026-05-07 15:31 | 19.28929 | 63.13588 | 36869 ft | 493 kts | 123° |
| 2026-05-07 15:32 | 19.25179 | 63.19649 | 36868 ft | 493 kts | 123° |
| 2026-05-07 15:32 | 19.21409 | 63.25735 | 36868 ft | 493 kts | 123° |
| 2026-05-07 15:33 | 19.17668 | 63.31770 | 36869 ft | 493 kts | 123° |
| 2026-05-07 15:33 | 19.13905 | 63.37833 | 36869 ft | 493 kts | 123° |
| 2026-05-07 15:34 | 19.10141 | 63.43892 | 36869 ft | 493 kts | 123° |
| 2026-05-07 15:34 | 19.06389 | 63.49927 | 36870 ft | 493 kts | 123° |
| 2026-05-07 15:35 | 19.02604 | 63.56009 | 36870 ft | 492 kts | 123° |
| 2026-05-07 15:35 | 18.98858 | 63.62022 | 36880 ft | 493 kts | 123° |
| 2026-05-07 15:36 | 18.95078 | 63.68088 | 36888 ft | 494 kts | 123° |
| 2026-05-07 15:36 | 18.91319 | 63.74113 | 36889 ft | 493 kts | 123° |
| 2026-05-07 15:37 | 18.87548 | 63.80153 | 36888 ft | 493 kts | 123° |
| 2026-05-07 15:37 | 18.83760 | 63.86214 | 36889 ft | 493 kts | 123° |
| 2026-05-07 15:38 | 18.79997 | 63.92228 | 36889 ft | 492 kts | 123° |
| 2026-05-07 15:38 | 18.76203 | 63.98286 | 36889 ft | 492 kts | 124° |
| 2026-05-07 15:39 | 18.72443 | 64.04285 | 36888 ft | 492 kts | 124° |
| 2026-05-07 15:39 | 18.68688 | 64.10268 | 36881 ft | 492 kts | 124° |
| 2026-05-07 15:40 | 18.64911 | 64.16283 | 36874 ft | 492 kts | 123° |
| 2026-05-07 15:40 | 18.61140 | 64.22282 | 36874 ft | 492 kts | 123° |
| 2026-05-07 15:41 | 18.57351 | 64.28303 | 36875 ft | 491 kts | 123° |
| 2026-05-07 15:41 | 18.53574 | 64.34300 | 36872 ft | 491 kts | 123° |
| 2026-05-07 15:42 | 18.49804 | 64.40279 | 36869 ft | 491 kts | 123° |
| 2026-05-07 15:42 | 18.46036 | 64.46250 | 36869 ft | 492 kts | 123° |
| 2026-05-07 15:43 | 18.42244 | 64.52254 | 36869 ft | 492 kts | 123° |
| 2026-05-07 15:43 | 18.38452 | 64.58253 | 36869 ft | 492 kts | 123° |
| 2026-05-07 15:44 | 18.34658 | 64.64249 | 36869 ft | 491 kts | 123° |
| 2026-05-07 15:44 | 18.30878 | 64.70216 | 36868 ft | 490 kts | 124° |
| 2026-05-07 15:45 | 18.27108 | 64.76163 | 36868 ft | 490 kts | 124° |
| 2026-05-07 15:45 | 18.23327 | 64.82121 | 36870 ft | 491 kts | 124° |
| 2026-05-07 15:46 | 18.17642 | 64.91070 | 36871 ft | 490 kts | 124° |
| 2026-05-07 15:47 | 18.13870 | 64.97001 | 36869 ft | 489 kts | 124° |
| 2026-05-07 15:47 | 18.10080 | 65.02954 | 36869 ft | 489 kts | 124° |
| 2026-05-07 15:48 | 18.06315 | 65.08863 | 36868 ft | 489 kts | 124° |
| 2026-05-07 15:48 | 18.02522 | 65.14811 | 36875 ft | 489 kts | 124° |
| 2026-05-07 15:49 | 17.98740 | 65.20736 | 36885 ft | 489 kts | 124° |
| 2026-05-07 15:49 | 17.94949 | 65.26668 | 36889 ft | 490 kts | 124° |
| 2026-05-07 15:50 | 17.91157 | 65.32598 | 36889 ft | 491 kts | 124° |
| 2026-05-07 15:50 | 17.87363 | 65.38525 | 36890 ft | 491 kts | 124° |
| 2026-05-07 15:51 | 17.83571 | 65.44445 | 36890 ft | 489 kts | 124° |
| 2026-05-07 15:51 | 17.79758 | 65.50392 | 36890 ft | 490 kts | 124° |
| 2026-05-07 15:52 | 17.75965 | 65.56302 | 36889 ft | 491 kts | 124° |
| 2026-05-07 15:52 | 17.72142 | 65.62254 | 36890 ft | 491 kts | 124° |
| 2026-05-07 15:53 | 17.68339 | 65.68169 | 36888 ft | 490 kts | 124° |
| 2026-05-07 15:53 | 17.64513 | 65.74114 | 36888 ft | 491 kts | 124° |
| 2026-05-07 15:54 | 17.60736 | 65.80003 | 36888 ft | 491 kts | 123° |
| 2026-05-07 15:54 | 17.57038 | 65.86015 | 36889 ft | 491 kts | 123° |
| 2026-05-07 15:55 | 17.53350 | 65.92013 | 36889 ft | 491 kts | 123° |
| 2026-05-07 15:55 | 17.49653 | 65.98013 | 36888 ft | 491 kts | 123° |
| 2026-05-07 15:56 | 17.45950 | 66.04011 | 36889 ft | 491 kts | 123° |
| 2026-05-07 15:56 | 17.42226 | 66.10036 | 36889 ft | 490 kts | 123° |
| 2026-05-07 15:57 | 17.38531 | 66.16007 | 36889 ft | 490 kts | 123° |
| 2026-05-07 15:57 | 17.34823 | 66.21993 | 36889 ft | 491 kts | 123° |
| 2026-05-07 15:58 | 17.31094 | 66.28008 | 36889 ft | 491 kts | 123° |
| 2026-05-07 15:58 | 17.27388 | 66.33981 | 36888 ft | 492 kts | 123° |
| 2026-05-07 15:59 | 17.23677 | 66.39955 | 36887 ft | 492 kts | 123° |
| 2026-05-07 15:59 | 17.19946 | 66.45956 | 36886 ft | 492 kts | 123° |
| 2026-05-07 16:00 | 17.16214 | 66.51955 | 36886 ft | 492 kts | 123° |
| 2026-05-07 16:00 | 17.12485 | 66.57942 | 36881 ft | 491 kts | 123° |
| 2026-05-07 16:01 | 17.08757 | 66.63924 | 36872 ft | 491 kts | 123° |
| 2026-05-07 16:01 | 17.05048 | 66.69868 | 36868 ft | 492 kts | 123° |
| 2026-05-07 16:02 | 17.01306 | 66.75861 | 36867 ft | 492 kts | 123° |
| 2026-05-07 16:02 | 16.97576 | 66.81830 | 36869 ft | 493 kts | 123° |
| 2026-05-07 16:03 | 16.93846 | 66.87794 | 36871 ft | 493 kts | 124° |
| 2026-05-07 16:03 | 16.90089 | 66.93794 | 36869 ft | 493 kts | 124° |
| 2026-05-07 16:04 | 16.86348 | 66.99766 | 36869 ft | 492 kts | 124° |
| 2026-05-07 16:04 | 16.82594 | 67.05753 | 36875 ft | 492 kts | 124° |
| 2026-05-07 16:05 | 16.78846 | 67.11724 | 36882 ft | 492 kts | 123° |
| 2026-05-07 16:05 | 16.75120 | 67.17656 | 36884 ft | 492 kts | 123° |
| 2026-05-07 16:06 | 16.71369 | 67.23622 | 36888 ft | 492 kts | 123° |
| 2026-05-07 16:06 | 16.67617 | 67.29585 | 36883 ft | 492 kts | 123° |
| 2026-05-07 16:07 | 16.63864 | 67.35545 | 36882 ft | 491 kts | 123° |
| 2026-05-07 16:07 | 16.60113 | 67.41496 | 36887 ft | 492 kts | 123° |
| 2026-05-07 16:08 | 16.56368 | 67.47433 | 36889 ft | 492 kts | 124° |
| 2026-05-07 16:08 | 16.52608 | 67.53387 | 36889 ft | 492 kts | 123° |
| 2026-05-07 16:09 | 16.48860 | 67.59320 | 36890 ft | 492 kts | 123° |
| 2026-05-07 16:09 | 16.45110 | 67.65250 | 36890 ft | 492 kts | 124° |
| 2026-05-07 16:10 | 16.41340 | 67.71205 | 36889 ft | 492 kts | 124° |
| 2026-05-07 16:10 | 16.37597 | 67.77114 | 36888 ft | 491 kts | 124° |
| 2026-05-07 16:11 | 16.33839 | 67.83041 | 36889 ft | 491 kts | 124° |
| 2026-05-07 16:11 | 16.30081 | 67.88965 | 36888 ft | 491 kts | 124° |
| 2026-05-07 16:12 | 16.26303 | 67.94915 | 36888 ft | 490 kts | 123° |
| 2026-05-07 16:12 | 16.22571 | 68.00850 | 36889 ft | 491 kts | 123° |
| 2026-05-07 16:13 | 16.18843 | 68.06780 | 36888 ft | 491 kts | 123° |
| 2026-05-07 16:13 | 16.15107 | 68.12715 | 36887 ft | 491 kts | 123° |
| 2026-05-07 16:14 | 16.11356 | 68.18670 | 36884 ft | 490 kts | 123° |
| 2026-05-07 16:14 | 16.07624 | 68.24587 | 36882 ft | 490 kts | 123° |
| 2026-05-07 16:15 | 16.03892 | 68.30500 | 36882 ft | 490 kts | 123° |
| 2026-05-07 16:15 | 16.00160 | 68.36409 | 36882 ft | 491 kts | 123° |
| 2026-05-07 16:16 | 15.96401 | 68.42355 | 36882 ft | 491 kts | 123° |
| 2026-05-07 16:16 | 15.92666 | 68.48257 | 36877 ft | 491 kts | 123° |
| 2026-05-07 16:17 | 15.88925 | 68.54166 | 36881 ft | 491 kts | 123° |
| 2026-05-07 16:17 | 15.85168 | 68.60094 | 36877 ft | 491 kts | 123° |
| 2026-05-07 16:18 | 15.81423 | 68.65999 | 36875 ft | 491 kts | 123° |
| 2026-05-07 16:18 | 15.77655 | 68.71935 | 36872 ft | 491 kts | 123° |
| 2026-05-07 16:19 | 15.73906 | 68.77837 | 36869 ft | 491 kts | 123° |
| 2026-05-07 16:19 | 15.70138 | 68.83764 | 36869 ft | 490 kts | 123° |
| 2026-05-07 16:20 | 15.66412 | 68.89619 | 36868 ft | 489 kts | 123° |
| 2026-05-07 16:20 | 15.62667 | 68.95501 | 36868 ft | 490 kts | 124° |
| 2026-05-07 16:21 | 15.58888 | 69.01432 | 36869 ft | 491 kts | 123° |
| 2026-05-07 16:21 | 15.55143 | 69.07304 | 36867 ft | 491 kts | 123° |
| 2026-05-07 16:22 | 15.51370 | 69.13215 | 36870 ft | 491 kts | 123° |
| 2026-05-07 16:22 | 15.47600 | 69.19117 | 36867 ft | 490 kts | 123° |
| 2026-05-07 16:23 | 15.43844 | 69.24994 | 36866 ft | 489 kts | 123° |
| 2026-05-07 16:23 | 15.40102 | 69.30842 | 36865 ft | 489 kts | 123° |
| 2026-05-07 16:24 | 15.36338 | 69.36721 | 36861 ft | 489 kts | 123° |
| 2026-05-07 16:24 | 15.32575 | 69.42593 | 36861 ft | 489 kts | 124° |
| 2026-05-07 16:25 | 15.28819 | 69.48451 | 36861 ft | 489 kts | 124° |
| 2026-05-07 16:25 | 15.25080 | 69.54279 | 36856 ft | 488 kts | 124° |
| 2026-05-07 16:26 | 15.21318 | 69.60136 | 36854 ft | 488 kts | 124° |
| 2026-05-07 16:26 | 15.17563 | 69.65979 | 36856 ft | 488 kts | 124° |
| 2026-05-07 16:27 | 15.13808 | 69.71817 | 36858 ft | 488 kts | 124° |
| 2026-05-07 16:27 | 15.10060 | 69.77665 | 36858 ft | 488 kts | 123° |
| 2026-05-07 16:28 | 15.06356 | 69.83511 | 36852 ft | 488 kts | 123° |
| 2026-05-07 16:28 | 15.02637 | 69.89374 | 36855 ft | 488 kts | 123° |
| 2026-05-07 16:29 | 14.98892 | 69.95273 | 36851 ft | 487 kts | 123° |
| 2026-05-07 16:29 | 14.95179 | 70.01115 | 36847 ft | 486 kts | 123° |
| 2026-05-07 16:30 | 14.91475 | 70.06937 | 36847 ft | 486 kts | 123° |
| 2026-05-07 16:30 | 14.87769 | 70.12760 | 36850 ft | 487 kts | 123° |
| 2026-05-07 16:31 | 14.84024 | 70.18639 | 36849 ft | 488 kts | 123° |
| 2026-05-07 16:31 | 14.80286 | 70.24501 | 36853 ft | 487 kts | 123° |
| 2026-05-07 16:32 | 14.76565 | 70.30333 | 36853 ft | 487 kts | 124° |
| 2026-05-07 16:32 | 14.72850 | 70.36152 | 36855 ft | 486 kts | 124° |
| 2026-05-07 16:33 | 14.69118 | 70.41991 | 36859 ft | 487 kts | 123° |
| 2026-05-07 16:33 | 14.65408 | 70.47793 | 36857 ft | 485 kts | 124° |
| 2026-05-07 16:34 | 14.61683 | 70.53615 | 36857 ft | 485 kts | 124° |
| 2026-05-07 16:34 | 14.57970 | 70.59412 | 36854 ft | 486 kts | 123° |
| 2026-05-07 16:35 | 14.54239 | 70.65234 | 36855 ft | 486 kts | 124° |
| 2026-05-07 16:35 | 14.50528 | 70.71021 | 36855 ft | 485 kts | 124° |
| 2026-05-07 16:36 | 14.46786 | 70.76850 | 36852 ft | 485 kts | 124° |
| 2026-05-07 16:36 | 14.43076 | 70.82627 | 36852 ft | 485 kts | 124° |
| 2026-05-07 16:37 | 14.39364 | 70.88403 | 36841 ft | 484 kts | 124° |
| 2026-05-07 16:37 | 14.35636 | 70.94200 | 36844 ft | 485 kts | 124° |
| 2026-05-07 16:38 | 14.31955 | 70.99996 | 36848 ft | 486 kts | 123° |
| 2026-05-07 16:38 | 14.28274 | 71.05832 | 36848 ft | 486 kts | 123° |
| 2026-05-07 16:39 | 14.24601 | 71.11647 | 36848 ft | 485 kts | 123° |
| 2026-05-07 16:39 | 14.20905 | 71.17493 | 36848 ft | 485 kts | 123° |
| 2026-05-07 16:40 | 14.17238 | 71.23287 | 36847 ft | 485 kts | 123° |
| 2026-05-07 16:40 | 14.13554 | 71.29104 | 36847 ft | 485 kts | 123° |
| 2026-05-07 16:41 | 14.09879 | 71.34901 | 36848 ft | 485 kts | 123° |
| 2026-05-07 16:41 | 14.06183 | 71.40729 | 36848 ft | 485 kts | 123° |
| 2026-05-07 16:42 | 14.02485 | 71.46552 | 36847 ft | 485 kts | 123° |
| 2026-05-07 16:42 | 13.98812 | 71.52335 | 36847 ft | 486 kts | 123° |
| 2026-05-07 16:43 | 13.95118 | 71.58145 | 36846 ft | 485 kts | 123° |
| 2026-05-07 16:43 | 13.91422 | 71.63956 | 36847 ft | 485 kts | 123° |
| 2026-05-07 16:44 | 13.87733 | 71.69752 | 36848 ft | 486 kts | 123° |
| 2026-05-07 16:44 | 13.84035 | 71.75557 | 36848 ft | 485 kts | 123° |
| 2026-05-07 16:45 | 13.80337 | 71.81359 | 36848 ft | 486 kts | 123° |
| 2026-05-07 16:45 | 13.76639 | 71.87155 | 36847 ft | 485 kts | 123° |
| 2026-05-07 16:46 | 13.72942 | 71.92947 | 36847 ft | 485 kts | 123° |
| 2026-05-07 16:46 | 13.69236 | 71.98749 | 36846 ft | 486 kts | 123° |
| 2026-05-07 16:47 | 13.65074 | 72.04268 | 37234 ft | 493 kts | 129° |
| 2026-05-07 16:47 | 13.62924 | 72.06986 | 38071 ft | 487 kts | 129° |
| 2026-05-07 16:47 | 13.60795 | 72.09677 | 38829 ft | 483 kts | 129° |
| 2026-05-07 16:48 | 13.56564 | 72.15026 | 38846 ft | 481 kts | 129° |
| 2026-05-07 16:48 | 13.52370 | 72.20327 | 38849 ft | 480 kts | 129° |
| 2026-05-07 16:49 | 13.48150 | 72.25658 | 38847 ft | 479 kts | 129° |
| 2026-05-07 16:49 | 13.43958 | 72.30952 | 38851 ft | 480 kts | 129° |
| 2026-05-07 16:50 | 13.39764 | 72.36244 | 38854 ft | 479 kts | 129° |
| 2026-05-07 16:50 | 13.35540 | 72.41572 | 38854 ft | 478 kts | 129° |
| 2026-05-07 16:51 | 13.31343 | 72.46863 | 38852 ft | 478 kts | 129° |
| 2026-05-07 16:51 | 13.27154 | 72.52139 | 38850 ft | 477 kts | 129° |
| 2026-05-07 16:52 | 13.22999 | 72.57371 | 38850 ft | 476 kts | 129° |
| 2026-05-07 16:52 | 13.18812 | 72.62640 | 38850 ft | 475 kts | 129° |
| 2026-05-07 16:53 | 13.14621 | 72.67910 | 38853 ft | 476 kts | 129° |
| 2026-05-07 16:53 | 13.10446 | 72.73158 | 38849 ft | 474 kts | 129° |
| 2026-05-07 16:54 | 13.06279 | 72.78391 | 38848 ft | 475 kts | 129° |
| 2026-05-07 16:54 | 13.02085 | 72.83656 | 38849 ft | 474 kts | 129° |
| 2026-05-07 16:55 | 12.97936 | 72.88862 | 38846 ft | 471 kts | 129° |
| 2026-05-07 16:55 | 12.93806 | 72.94040 | 38848 ft | 473 kts | 129° |
| 2026-05-07 16:56 | 12.89616 | 72.99292 | 38846 ft | 473 kts | 129° |
| 2026-05-07 16:56 | 12.83383 | 73.07096 | 38845 ft | 474 kts | 128° |
| 2026-05-07 16:57 | 12.79217 | 73.12310 | 38845 ft | 473 kts | 128° |
| 2026-05-07 16:57 | 12.75033 | 73.17542 | 38843 ft | 476 kts | 128° |
| 2026-05-07 16:58 | 12.70871 | 73.22744 | 38847 ft | 473 kts | 128° |
| 2026-05-07 16:58 | 12.66658 | 73.28007 | 38840 ft | 475 kts | 128° |
| 2026-05-07 16:59 | 12.62499 | 73.33199 | 38843 ft | 475 kts | 128° |
| 2026-05-07 16:59 | 12.58302 | 73.38435 | 38843 ft | 477 kts | 128° |
| 2026-05-07 17:00 | 12.54085 | 73.43694 | 38837 ft | 474 kts | 128° |
| 2026-05-07 17:00 | 12.49875 | 73.48941 | 38834 ft | 477 kts | 128° |
| 2026-05-07 17:01 | 12.45694 | 73.54149 | 38833 ft | 477 kts | 128° |
| 2026-05-07 17:01 | 12.41480 | 73.59395 | 38833 ft | 478 kts | 128° |
| 2026-05-07 17:02 | 12.37248 | 73.64661 | 38826 ft | 477 kts | 128° |
| 2026-05-07 17:02 | 12.33038 | 73.69896 | 38833 ft | 478 kts | 128° |
| 2026-05-07 17:03 | 12.28822 | 73.75136 | 38832 ft | 477 kts | 128° |
| 2026-05-07 17:03 | 12.24597 | 73.80384 | 38831 ft | 479 kts | 128° |
| 2026-05-07 17:04 | 12.20357 | 73.85647 | 38830 ft | 480 kts | 128° |
| 2026-05-07 17:04 | 12.16125 | 73.90898 | 38829 ft | 481 kts | 128° |
| 2026-05-07 17:05 | 12.11869 | 73.96175 | 38829 ft | 480 kts | 128° |
| 2026-05-07 17:05 | 12.07637 | 74.01421 | 38827 ft | 481 kts | 128° |
| 2026-05-07 17:06 | 12.03370 | 74.06705 | 38825 ft | 480 kts | 128° |
| 2026-05-07 17:06 | 11.99136 | 74.11948 | 38826 ft | 482 kts | 128° |
| 2026-05-07 17:07 | 11.94862 | 74.17236 | 38822 ft | 481 kts | 128° |
| 2026-05-07 17:07 | 11.90596 | 74.22512 | 38828 ft | 482 kts | 128° |
| 2026-05-07 17:08 | 11.86328 | 74.27786 | 38823 ft | 482 kts | 128° |
| 2026-05-07 17:08 | 11.82058 | 74.33062 | 38824 ft | 482 kts | 128° |
| 2026-05-07 17:09 | 11.77796 | 74.38325 | 38828 ft | 482 kts | 128° |
| 2026-05-07 17:09 | 11.73540 | 74.43576 | 38835 ft | 481 kts | 128° |
| 2026-05-07 17:10 | 11.69268 | 74.48845 | 38833 ft | 481 kts | 128° |
| 2026-05-07 17:10 | 11.65006 | 74.54099 | 38834 ft | 481 kts | 128° |
| 2026-05-07 17:11 | 11.60722 | 74.59376 | 38829 ft | 481 kts | 128° |
| 2026-05-07 17:11 | 11.56472 | 74.64609 | 38829 ft | 481 kts | 128° |
| 2026-05-07 17:12 | 11.52212 | 74.69853 | 38834 ft | 481 kts | 128° |
| 2026-05-07 17:12 | 11.47945 | 74.75101 | 38836 ft | 480 kts | 128° |
| 2026-05-07 17:13 | 11.43676 | 74.80350 | 38835 ft | 481 kts | 128° |
| 2026-05-07 17:13 | 11.39417 | 74.85583 | 38828 ft | 480 kts | 128° |
| 2026-05-07 17:14 | 11.35148 | 74.90826 | 38824 ft | 481 kts | 128° |
| 2026-05-07 17:14 | 11.30910 | 74.96027 | 38827 ft | 479 kts | 128° |
| 2026-05-07 17:15 | 11.26633 | 75.01275 | 38826 ft | 479 kts | 128° |
| 2026-05-07 17:15 | 11.22395 | 75.06472 | 38825 ft | 478 kts | 128° |
| 2026-05-07 17:16 | 11.18129 | 75.11700 | 38829 ft | 479 kts | 128° |
| 2026-05-07 17:16 | 11.13883 | 75.16901 | 38826 ft | 479 kts | 128° |
| 2026-05-07 17:17 | 11.09632 | 75.22106 | 38828 ft | 478 kts | 128° |
| 2026-05-07 17:17 | 11.05374 | 75.27316 | 38824 ft | 479 kts | 128° |
| 2026-05-07 17:18 | 11.01121 | 75.32519 | 38826 ft | 477 kts | 128° |
| 2026-05-07 17:18 | 10.96886 | 75.37696 | 38826 ft | 478 kts | 128° |
| 2026-05-07 17:19 | 10.92641 | 75.42884 | 38827 ft | 477 kts | 128° |
| 2026-05-07 17:19 | 10.88403 | 75.48061 | 38825 ft | 478 kts | 128° |
| 2026-05-07 17:20 | 10.84141 | 75.53263 | 38823 ft | 477 kts | 128° |
| 2026-05-07 17:20 | 10.79906 | 75.58430 | 38823 ft | 476 kts | 128° |
| 2026-05-07 17:21 | 10.75670 | 75.63596 | 38823 ft | 476 kts | 128° |
| 2026-05-07 17:21 | 10.71432 | 75.68762 | 38828 ft | 476 kts | 128° |
| 2026-05-07 17:22 | 10.67209 | 75.73907 | 38829 ft | 476 kts | 128° |
| 2026-05-07 17:22 | 10.62956 | 75.79087 | 38832 ft | 475 kts | 128° |
| 2026-05-07 17:23 | 10.58726 | 75.84235 | 38836 ft | 475 kts | 128° |
| 2026-05-07 17:23 | 10.54513 | 75.89361 | 38843 ft | 475 kts | 128° |
| 2026-05-07 17:24 | 10.50274 | 75.94517 | 38846 ft | 475 kts | 128° |
| 2026-05-07 17:24 | 10.46031 | 75.99674 | 38848 ft | 475 kts | 128° |
| 2026-05-07 17:25 | 10.41784 | 76.04833 | 38854 ft | 474 kts | 128° |
| 2026-05-07 17:25 | 10.37578 | 76.09941 | 38856 ft | 474 kts | 128° |
| 2026-05-07 17:26 | 10.33339 | 76.15086 | 38861 ft | 474 kts | 128° |
| 2026-05-07 17:26 | 10.29131 | 76.20191 | 38868 ft | 473 kts | 128° |
| 2026-05-07 17:27 | 10.24893 | 76.25331 | 38869 ft | 474 kts | 128° |
| 2026-05-07 17:27 | 10.20676 | 76.30442 | 38876 ft | 472 kts | 128° |
| 2026-05-07 17:28 | 10.16449 | 76.35564 | 38873 ft | 473 kts | 128° |
| 2026-05-07 17:28 | 10.12215 | 76.40677 | 38883 ft | 472 kts | 128° |
| 2026-05-07 17:29 | 10.07995 | 76.45755 | 38884 ft | 473 kts | 128° |
| 2026-05-07 17:29 | 10.03741 | 76.50871 | 38882 ft | 472 kts | 128° |
| 2026-05-07 17:30 | 9.99512 | 76.55957 | 38889 ft | 471 kts | 128° |
| 2026-05-07 17:30 | 9.95307 | 76.61011 | 38902 ft | 471 kts | 128° |
| 2026-05-07 17:31 | 9.91073 | 76.66100 | 38895 ft | 473 kts | 128° |
| 2026-05-07 17:31 | 9.86842 | 76.71182 | 38908 ft | 472 kts | 128° |
| 2026-05-07 17:32 | 9.82609 | 76.76263 | 38932 ft | 470 kts | 128° |
| 2026-05-07 17:32 | 9.78385 | 76.81332 | 38956 ft | 471 kts | 128° |
| 2026-05-07 17:33 | 9.74165 | 76.86395 | 38973 ft | 473 kts | 128° |
| 2026-05-07 17:33 | 9.69908 | 76.91500 | 38973 ft | 473 kts | 128° |
| 2026-05-07 17:34 | 9.67545 | 76.94332 | 38984 ft | 473 kts | 128° |
| 2026-05-07 17:34 | 9.64074 | 76.98491 | 38979 ft | 473 kts | 128° |
| 2026-05-07 17:35 | 9.59832 | 77.03571 | 38988 ft | 472 kts | 128° |
| 2026-05-07 17:35 | 9.55565 | 77.08682 | 38962 ft | 479 kts | 129° |
| 2026-05-07 17:36 | 9.51258 | 77.13836 | 38941 ft | 485 kts | 129° |
| 2026-05-07 17:36 | 9.46882 | 77.19070 | 38943 ft | 486 kts | 129° |
| 2026-05-07 17:37 | 9.42494 | 77.24317 | 38949 ft | 486 kts | 129° |
| 2026-05-07 17:37 | 9.38155 | 77.29503 | 38952 ft | 484 kts | 129° |
| 2026-05-07 17:38 | 9.33789 | 77.34718 | 38921 ft | 484 kts | 129° |
| 2026-05-07 17:38 | 9.29454 | 77.39896 | 38885 ft | 485 kts | 129° |
| 2026-05-07 17:39 | 9.25066 | 77.45133 | 38853 ft | 486 kts | 129° |
| 2026-05-07 17:39 | 9.20693 | 77.50352 | 38819 ft | 486 kts | 129° |
| 2026-05-07 17:40 | 9.16316 | 77.55572 | 38804 ft | 488 kts | 129° |
| 2026-05-07 17:40 | 9.11958 | 77.60768 | 38803 ft | 488 kts | 128° |
| 2026-05-07 17:41 | 9.07527 | 77.66048 | 38809 ft | 489 kts | 129° |
| 2026-05-07 17:41 | 9.03141 | 77.71272 | 38806 ft | 488 kts | 129° |
| 2026-05-07 17:42 | 8.98742 | 77.76510 | 38791 ft | 489 kts | 129° |
| 2026-05-07 17:42 | 8.94338 | 77.81751 | 38785 ft | 490 kts | 129° |
| 2026-05-07 17:43 | 8.89928 | 77.86998 | 38784 ft | 492 kts | 129° |
| 2026-05-07 17:43 | 8.85504 | 77.92260 | 38778 ft | 492 kts | 129° |
| 2026-05-07 17:44 | 8.81045 | 77.97559 | 38771 ft | 493 kts | 128° |
| 2026-05-07 17:44 | 8.76604 | 78.02836 | 38771 ft | 492 kts | 129° |
| 2026-05-07 17:45 | 8.72193 | 78.08076 | 38768 ft | 491 kts | 129° |
| 2026-05-07 17:45 | 8.67773 | 78.13323 | 38766 ft | 491 kts | 128° |
| 2026-05-07 17:46 | 8.63340 | 78.18584 | 38766 ft | 491 kts | 128° |
| 2026-05-07 17:46 | 8.58898 | 78.23853 | 38767 ft | 491 kts | 128° |
| 2026-05-07 17:47 | 8.54488 | 78.29084 | 38770 ft | 491 kts | 128° |
| 2026-05-07 17:47 | 8.50056 | 78.34338 | 38762 ft | 488 kts | 128° |
| 2026-05-07 17:48 | 8.47880 | 78.36916 | 38213 ft | 484 kts | 128° |
| 2026-05-07 17:48 | 8.45676 | 78.39527 | 37282 ft | 486 kts | 128° |
| 2026-05-07 17:48 | 8.43497 | 78.42108 | 36428 ft | 487 kts | 129° |
| 2026-05-07 17:48 | 8.41283 | 78.44730 | 35601 ft | 487 kts | 129° |
| 2026-05-07 17:49 | 8.39107 | 78.47308 | 34786 ft | 487 kts | 129° |
| 2026-05-07 17:49 | 8.36925 | 78.49891 | 33899 ft | 488 kts | 129° |
| 2026-05-07 17:49 | 8.34712 | 78.52511 | 33007 ft | 489 kts | 129° |
| 2026-05-07 17:49 | 8.32495 | 78.55135 | 32124 ft | 489 kts | 129° |
| 2026-05-07 17:50 | 8.30316 | 78.57713 | 31251 ft | 491 kts | 129° |
| 2026-05-07 17:50 | 8.28079 | 78.60360 | 30350 ft | 492 kts | 129° |
| 2026-05-07 17:50 | 8.26057 | 78.63068 | 29832 ft | 484 kts | 124° |
| 2026-05-07 17:50 | 8.24143 | 78.65847 | 29326 ft | 478 kts | 124° |
| 2026-05-07 17:51 | 8.22250 | 78.68597 | 28766 ft | 472 kts | 125° |
| 2026-05-07 17:51 | 8.20379 | 78.71301 | 28196 ft | 468 kts | 125° |
| 2026-05-07 17:51 | 8.18532 | 78.73959 | 27632 ft | 464 kts | 125° |
| 2026-05-07 17:51 | 8.16690 | 78.76601 | 27059 ft | 460 kts | 125° |
| 2026-05-07 17:52 | 8.14851 | 78.79233 | 26468 ft | 457 kts | 125° |
| 2026-05-07 17:52 | 8.13021 | 78.81845 | 25880 ft | 453 kts | 125° |
| 2026-05-07 17:52 | 8.11236 | 78.84391 | 25300 ft | 450 kts | 125° |
| 2026-05-07 17:52 | 8.09423 | 78.86974 | 24702 ft | 447 kts | 125° |
| 2026-05-07 17:53 | 8.07650 | 78.89497 | 24115 ft | 443 kts | 125° |
| 2026-05-07 17:53 | 8.05865 | 78.92035 | 23518 ft | 440 kts | 124° |
| 2026-05-07 17:53 | 8.04100 | 78.94544 | 22924 ft | 437 kts | 125° |
| 2026-05-07 17:53 | 8.02356 | 78.97022 | 22335 ft | 434 kts | 125° |
| 2026-05-07 17:54 | 8.00595 | 78.99522 | 21731 ft | 432 kts | 125° |
| 2026-05-07 17:54 | 7.98881 | 79.01957 | 21138 ft | 429 kts | 125° |
| 2026-05-07 17:54 | 7.97147 | 79.04417 | 20537 ft | 426 kts | 124° |
| 2026-05-07 17:54 | 7.95455 | 79.06819 | 19935 ft | 424 kts | 124° |
| 2026-05-07 17:55 | 7.93750 | 79.09238 | 19330 ft | 421 kts | 124° |
| 2026-05-07 17:55 | 7.92068 | 79.11624 | 18729 ft | 419 kts | 124° |
| 2026-05-07 17:55 | 7.90371 | 79.14031 | 18112 ft | 417 kts | 124° |
| 2026-05-07 17:55 | 7.88712 | 79.16383 | 17507 ft | 415 kts | 124° |
| 2026-05-07 17:56 | 7.87035 | 79.18761 | 16895 ft | 413 kts | 124° |
| 2026-05-07 17:56 | 7.85388 | 79.21096 | 16285 ft | 411 kts | 124° |
| 2026-05-07 17:56 | 7.83723 | 79.23455 | 15660 ft | 410 kts | 124° |
| 2026-05-07 17:56 | 7.82069 | 79.25799 | 15040 ft | 408 kts | 124° |
| 2026-05-07 17:57 | 7.80429 | 79.28122 | 14426 ft | 406 kts | 124° |
| 2026-05-07 17:57 | 7.79358 | 79.29640 | 14023 ft | 404 kts | 123° |
| 2026-05-07 17:57 | 7.77195 | 79.32703 | 13210 ft | 402 kts | 124° |
| 2026-05-07 17:57 | 7.75590 | 79.34976 | 12662 ft | 398 kts | 124° |
| 2026-05-07 17:58 | 7.73982 | 79.37253 | 12028 ft | 396 kts | 124° |
| 2026-05-07 17:58 | 7.72392 | 79.39505 | 11469 ft | 392 kts | 124° |
| 2026-05-07 17:58 | 7.70810 | 79.41744 | 10888 ft | 389 kts | 124° |
| 2026-05-07 17:58 | 7.69279 | 79.43909 | 10646 ft | 376 kts | 124° |
| 2026-05-07 17:59 | 7.67785 | 79.46023 | 10564 ft | 360 kts | 124° |
| 2026-05-07 17:59 | 7.66368 | 79.48027 | 10437 ft | 346 kts | 123° |
| 2026-05-07 17:59 | 7.64989 | 79.49979 | 10288 ft | 334 kts | 124° |
| 2026-05-07 17:59 | 7.63654 | 79.51867 | 10139 ft | 323 kts | 124° |
| 2026-05-07 18:00 | 7.62374 | 79.53679 | 9992 ft | 313 kts | 124° |
| 2026-05-07 18:00 | 7.61128 | 79.55441 | 9789 ft | 305 kts | 124° |
| 2026-05-07 18:00 | 7.59912 | 79.57160 | 9447 ft | 302 kts | 124° |
| 2026-05-07 18:00 | 7.58700 | 79.58875 | 9147 ft | 298 kts | 124° |
| 2026-05-07 18:01 | 7.57501 | 79.60571 | 8662 ft | 299 kts | 124° |
| 2026-05-07 18:01 | 7.56308 | 79.62257 | 8322 ft | 292 kts | 124° |
| 2026-05-07 18:01 | 7.55141 | 79.63906 | 7926 ft | 288 kts | 124° |
| 2026-05-07 18:01 | 7.53991 | 79.65532 | 7583 ft | 283 kts | 124° |
| 2026-05-07 18:02 | 7.51704 | 79.68763 | 6884 ft | 283 kts | 124° |
| 2026-05-07 18:02 | 7.50563 | 79.70375 | 6540 ft | 282 kts | 124° |
| 2026-05-07 18:02 | 7.49438 | 79.71965 | 6200 ft | 279 kts | 124° |
| 2026-05-07 18:03 | 7.48311 | 79.73557 | 5877 ft | 274 kts | 124° |
| 2026-05-07 18:03 | 7.47212 | 79.75108 | 5553 ft | 271 kts | 124° |
| 2026-05-07 18:03 | 7.46128 | 79.76640 | 5250 ft | 267 kts | 124° |
| 2026-05-07 18:03 | 7.45042 | 79.78173 | 4925 ft | 268 kts | 124° |
| 2026-05-07 18:04 | 7.43961 | 79.79700 | 4602 ft | 268 kts | 124° |
| 2026-05-07 18:04 | 7.42877 | 79.81231 | 4287 ft | 268 kts | 124° |
| 2026-05-07 18:04 | 7.41803 | 79.82747 | 3981 ft | 267 kts | 124° |
| 2026-05-07 18:04 | 7.40741 | 79.84244 | 3945 ft | 254 kts | 124° |
| 2026-05-07 18:05 | 7.39733 | 79.85667 | 3907 ft | 241 kts | 124° |
| 2026-05-07 18:05 | 7.38786 | 79.87003 | 3689 ft | 236 kts | 124° |
| 2026-05-07 18:05 | 7.37826 | 79.88358 | 3359 ft | 236 kts | 124° |
| 2026-05-07 18:05 | 7.36880 | 79.89694 | 3016 ft | 236 kts | 124° |
| 2026-05-07 18:06 | 7.35920 | 79.91049 | 2632 ft | 241 kts | 124° |
| 2026-05-07 18:06 | 7.34909 | 79.92423 | 2279 ft | 241 kts | 128° |
| 2026-05-07 18:06 | 7.33889 | 79.93732 | 2069 ft | 235 kts | 128° |
| 2026-05-07 18:06 | 7.32897 | 79.95014 | 1899 ft | 227 kts | 127° |
| 2026-05-07 18:07 | 7.31862 | 79.96180 | 1656 ft | 222 kts | 144° |
| 2026-05-07 18:07 | 7.30463 | 79.96712 | 1499 ft | 209 kts | 176° |
| 2026-05-07 18:07 | 7.29064 | 79.96714 | 1519 ft | 194 kts | 194° |
| 2026-05-07 18:07 | 7.27946 | 79.96054 | 1511 ft | 180 kts | 231° |
| 2026-05-07 18:08 | 7.27136 | 79.95137 | 1526 ft | 172 kts | 217° |
| 2026-05-07 18:08 | 7.26137 | 79.94479 | 1509 ft | 168 kts | 217° |
| 2026-05-07 18:08 | 7.25250 | 79.93797 | 1433 ft | 155 kts | 219° |
| 2026-05-07 18:08 | 7.24397 | 79.93147 | 1244 ft | 151 kts | 218° |
| 2026-05-07 18:09 | 7.23555 | 79.92507 | 1052 ft | 149 kts | 218° |
| 2026-05-07 18:09 | 7.22732 | 79.91895 | 852 ft | 146 kts | 218° |
| 2026-05-07 18:09 | 7.21921 | 79.91295 | 676 ft | 145 kts | 217° |
| 2026-05-07 18:09 | 7.21091 | 79.90681 | 487 ft | 146 kts | 217° |
| 2026-05-07 18:10 | 7.20279 | 79.90065 | 313 ft | 147 kts | 218° |
| 2026-05-07 18:10 | 7.19473 | 79.89436 | 113 ft | 145 kts | 218° |
| 2026-05-07 18:10 | 7.18717 | 79.88845 | 50 ft | 121 kts | 218° |
| 2026-05-07 18:10 | 7.18139 | 79.88397 | 48 ft | 85 kts | 218° |
| 2026-05-07 18:11 | 7.17763 | 79.88105 | 46 ft | 50 kts | 218° |
| 2026-05-07 18:11 | 7.17587 | 79.87968 | 46 ft | 21 kts | 218° |
| 2026-05-07 18:11 | 7.17533 | 79.87934 | 47 ft | 6 kts | 189° |
| 2026-05-07 18:11 | 7.17486 | 79.87964 | 47 ft | 9 kts | 127° |
| 2026-05-07 18:12 | 7.17456 | 79.88003 | 47 ft | 0 kts | 128° |
| 2026-05-07 18:12 | 7.17453 | 79.88007 | 47 ft | 2 kts | 127° |
| 2026-05-07 18:12 | 7.17432 | 79.88036 | 47 ft | 6 kts | 124° |
| 2026-05-07 18:12 | 7.17439 | 79.88081 | 47 ft | 8 kts | 46° |
| 2026-05-07 18:13 | 7.17499 | 79.88129 | 47 ft | 12 kts | 39° |
| 2026-05-07 18:13 | 7.17575 | 79.88188 | 47 ft | 13 kts | 38° |
| 2026-05-07 18:13 | 7.17625 | 79.88232 | 47 ft | 6 kts | 62° |
| 2026-05-07 18:13 | 7.17618 | 79.88274 | 47 ft | 6 kts | 119° |
| 2026-05-07 18:14 | 7.17598 | 79.88304 | 47 ft | 3 kts | 114° |
| 2026-05-07 18:14 | 7.17598 | 79.88318 | 48 ft | 1 kts | 72° |
| 2026-05-07 18:14 | 7.17610 | 79.88332 | 48 ft | 4 kts | 40° |
| 2026-05-07 18:14 | 7.17629 | 79.88347 | 49 ft | 2 kts | 38° |
| 2026-05-07 18:15 | 7.17636 | 79.88352 | 49 ft | 1 kts | 38° |
| 2026-05-07 18:15 | 7.17644 | 79.88357 | 50 ft | 0 kts | 38° |